createdAt,value
2022-11-23T00:00:17.562Z,85.75
2022-11-23T00:01:17.597Z,85.28
2022-11-23T00:02:17.711Z,85.18
2022-11-23T00:03:17.648Z,85.66
2022-11-23T00:04:17.678Z,85.18
2022-11-23T00:05:17.708Z,85.66
2022-11-23T00:06:17.748Z,85.75
2022-11-23T00:07:17.849Z,85.85
2022-11-23T00:09:17.924Z,85.28
2022-11-23T00:10:17.856Z,85.66
2022-11-23T00:11:17.879Z,85.08
2022-11-23T00:12:17.907Z,85.37
2022-11-23T00:13:18.046Z,85.08
2022-11-23T00:14:17.966Z,85.66
2022-11-23T00:15:18.241Z,85.57
2022-11-23T00:16:18.022Z,85.37
2022-11-23T00:17:18.057Z,85.37
2022-11-23T00:19:18.108Z,85.08
2022-11-23T00:20:18.142Z,85.08
2022-11-23T00:21:18.167Z,85.18
2022-11-23T00:22:18.503Z,85.18
2022-11-23T00:24:18.255Z,85.37
2022-11-23T00:25:18.347Z,84.99
2022-11-23T00:26:18.309Z,85.28
2022-11-23T00:27:18.335Z,85.18
2022-11-23T00:29:18.724Z,85.47
2022-11-23T00:30:18.427Z,84.51
2022-11-23T00:31:18.453Z,84.89
2022-11-23T00:32:18.481Z,84.80
2022-11-23T00:33:18.540Z,85.08
2022-11-23T00:34:18.535Z,84.99
2022-11-23T00:35:18.568Z,84.99
2022-11-23T00:36:18.594Z,85.08
2022-11-23T00:37:18.622Z,84.89
2022-11-23T00:38:18.651Z,84.80
2022-11-23T00:39:18.683Z,84.80
2022-11-23T00:40:18.705Z,84.80
2022-11-23T00:41:18.752Z,84.70
2022-11-23T00:42:19.065Z,84.99
2022-11-23T00:43:18.802Z,84.99
2022-11-23T00:44:18.824Z,85.08
2022-11-23T00:45:18.873Z,84.70
2022-11-23T00:46:18.881Z,84.99
2022-11-23T00:47:18.922Z,84.89
2022-11-23T00:48:18.939Z,84.99
2022-11-23T00:49:18.966Z,84.99
2022-11-23T00:50:19.099Z,84.89
2022-11-23T00:51:19.045Z,84.80
2022-11-23T00:52:19.055Z,84.89
2022-11-23T00:53:19.095Z,84.80
2022-11-23T00:54:19.358Z,84.80
2022-11-23T00:55:19.246Z,84.70
2022-11-23T00:56:19.171Z,84.80
2022-11-23T00:57:19.196Z,84.70
2022-11-23T00:58:19.225Z,84.70
2022-11-23T00:59:19.256Z,84.89
2022-11-23T01:00:19.286Z,84.89
2022-11-23T01:01:19.406Z,85.08
2022-11-23T01:02:19.344Z,84.70
2022-11-23T01:04:19.397Z,85.08
2022-11-23T01:05:19.426Z,85.08
2022-11-23T01:06:19.453Z,84.80
2022-11-23T01:07:19.843Z,84.80
2022-11-23T01:08:19.515Z,84.80
2022-11-23T01:09:19.541Z,84.80
2022-11-23T01:10:19.569Z,85.18
2022-11-23T01:11:19.897Z,84.80
2022-11-23T01:12:19.632Z,84.89
2022-11-23T01:13:19.653Z,85.18
2022-11-23T01:14:19.694Z,84.51
2022-11-23T01:15:19.712Z,84.80
2022-11-23T01:16:24.069Z,85.28
2022-11-23T01:17:19.829Z,85.18
2022-11-23T01:18:19.799Z,85.37
2022-11-23T01:19:19.848Z,85.37
2022-11-23T01:20:20.108Z,85.37
2022-11-23T01:21:19.888Z,85.18
2022-11-23T01:22:19.913Z,85.28
2022-11-23T01:23:19.944Z,85.37
2022-11-23T01:24:19.972Z,85.28
2022-11-23T01:25:20.056Z,85.28
2022-11-23T01:26:20.032Z,84.70
2022-11-23T01:27:20.058Z,85.28
2022-11-23T01:28:20.089Z,85.18
2022-11-23T01:29:20.114Z,85.28
2022-11-23T01:30:20.164Z,85.37
2022-11-23T01:32:20.200Z,85.28
2022-11-23T01:33:20.251Z,84.70
2022-11-23T01:34:20.253Z,85.18
2022-11-23T01:35:20.286Z,84.80
2022-11-23T01:36:20.315Z,84.80
2022-11-23T01:37:20.346Z,85.08
2022-11-23T01:38:20.390Z,84.80
2022-11-23T01:39:20.416Z,84.80
2022-11-23T01:40:20.429Z,84.80
2022-11-23T01:41:20.481Z,84.99
2022-11-23T01:42:20.492Z,84.89
2022-11-23T01:43:20.517Z,84.80
2022-11-23T01:44:20.544Z,84.89
2022-11-23T01:45:20.579Z,84.80
2022-11-23T01:46:20.600Z,84.70
2022-11-23T01:47:20.631Z,84.70
2022-11-23T01:48:20.661Z,84.70
2022-11-23T01:49:20.709Z,84.70
2022-11-23T01:50:20.763Z,84.89
2022-11-23T01:51:21.048Z,84.89
2022-11-23T01:52:20.774Z,84.99
2022-11-23T01:53:20.906Z,84.89
2022-11-23T01:54:20.832Z,84.89
2022-11-23T01:55:20.868Z,84.99
2022-11-23T01:56:20.894Z,84.89
2022-11-23T01:57:20.918Z,84.89
2022-11-23T01:59:20.974Z,84.89
2022-11-23T02:01:21.106Z,84.99
2022-11-23T02:02:21.062Z,84.51
2022-11-23T02:03:21.090Z,84.41
2022-11-23T02:04:21.119Z,84.99
2022-11-23T02:05:21.170Z,84.41
2022-11-23T02:06:21.180Z,84.41
2022-11-23T02:07:21.247Z,84.99
2022-11-23T02:08:21.243Z,84.41
2022-11-23T02:09:21.261Z,84.99
2022-11-23T02:10:21.329Z,84.51
2022-11-23T02:11:21.318Z,84.41
2022-11-23T02:13:21.375Z,84.99
2022-11-23T02:14:23.539Z,84.99
2022-11-23T02:15:21.439Z,84.89
2022-11-23T02:16:21.713Z,84.99
2022-11-23T02:17:21.596Z,84.70
2022-11-23T02:18:21.529Z,84.70
2022-11-23T02:19:21.549Z,84.89
2022-11-23T02:20:21.577Z,84.89
2022-11-23T02:21:21.629Z,84.51
2022-11-23T02:22:21.885Z,84.99
2022-11-23T02:23:21.673Z,84.70
2022-11-23T02:24:21.724Z,84.80
2022-11-23T02:25:21.758Z,84.89
2022-11-23T02:26:21.751Z,84.70
2022-11-23T02:27:21.777Z,84.99
2022-11-23T02:28:22.059Z,84.51
2022-11-23T02:29:21.842Z,84.41
2022-11-23T02:30:21.865Z,84.89
2022-11-23T02:31:21.893Z,84.41
2022-11-23T02:32:21.920Z,84.70
2022-11-23T02:33:21.948Z,84.41
2022-11-23T02:34:21.980Z,84.51
2022-11-23T02:35:22.306Z,84.89
2022-11-23T02:36:22.036Z,84.70
2022-11-23T02:37:22.092Z,84.80
2022-11-23T02:38:22.089Z,84.51
2022-11-23T02:39:22.124Z,84.80
2022-11-23T02:40:22.150Z,84.70
2022-11-23T02:42:22.510Z,84.41
2022-11-23T02:43:22.231Z,84.70
2022-11-23T02:44:22.261Z,84.89
2022-11-23T02:45:22.298Z,84.41
2022-11-23T02:46:22.355Z,84.99
2022-11-23T02:47:22.455Z,84.89
2022-11-23T02:48:22.391Z,84.60
2022-11-23T02:49:22.706Z,84.80
2022-11-23T02:50:22.436Z,84.89
2022-11-23T02:51:22.472Z,84.70
2022-11-23T02:52:22.491Z,84.89
2022-11-23T02:53:22.540Z,84.89
2022-11-23T02:54:22.550Z,84.99
2022-11-23T02:55:22.583Z,84.89
2022-11-23T02:56:22.611Z,84.89
2022-11-23T02:57:22.646Z,84.89
2022-11-23T02:59:22.693Z,84.70
2022-11-23T03:00:22.820Z,84.99
2022-11-23T03:01:22.849Z,84.89
2022-11-23T03:02:23.080Z,84.99
2022-11-23T03:03:22.815Z,84.99
2022-11-23T03:04:27.580Z,84.80
2022-11-23T03:05:22.872Z,84.51
2022-11-23T03:06:22.891Z,85.18
2022-11-23T03:07:22.968Z,84.89
2022-11-23T03:08:22.951Z,85.18
2022-11-23T03:09:22.999Z,85.37
2022-11-23T03:10:23.004Z,84.56
2022-11-23T03:12:23.069Z,84.66
2022-11-23T03:13:23.097Z,84.80
2022-11-23T03:14:23.128Z,84.80
2022-11-23T03:15:23.149Z,84.89
2022-11-23T03:16:23.179Z,84.89
2022-11-23T03:17:23.208Z,84.80
2022-11-23T03:18:23.236Z,84.80
2022-11-23T03:19:23.268Z,84.89
2022-11-23T03:20:23.295Z,84.80
2022-11-23T03:21:23.323Z,84.80
2022-11-23T03:22:23.350Z,84.99
2022-11-23T03:23:23.381Z,84.99
2022-11-23T03:24:23.413Z,84.89
2022-11-23T03:25:23.467Z,84.80
2022-11-23T03:26:23.470Z,84.99
2022-11-23T03:27:23.493Z,84.89
2022-11-23T03:28:23.531Z,84.70
2022-11-23T03:29:23.553Z,84.70
2022-11-23T03:30:23.580Z,84.89
2022-11-23T03:31:23.608Z,84.70
2022-11-23T03:32:23.640Z,84.80
2022-11-23T03:34:23.705Z,84.99
2022-11-23T03:35:23.723Z,84.89
2022-11-23T03:36:23.754Z,84.70
2022-11-23T03:37:23.812Z,84.89
2022-11-23T03:38:23.808Z,84.85
2022-11-23T03:39:24.122Z,84.80
2022-11-23T03:40:23.866Z,84.85
2022-11-23T03:41:23.949Z,84.80
2022-11-23T03:42:23.939Z,84.70
2022-11-23T03:43:23.976Z,84.80
2022-11-23T03:44:24.026Z,84.95
2022-11-23T03:45:24.031Z,84.75
2022-11-23T03:46:24.299Z,84.89
2022-11-23T03:47:24.118Z,84.70
2022-11-23T03:48:24.093Z,84.85
2022-11-23T03:49:24.134Z,84.95
2022-11-23T03:50:24.152Z,84.75
2022-11-23T03:52:24.270Z,84.75
2022-11-23T03:53:24.493Z,84.75
2022-11-23T03:54:24.271Z,84.85
2022-11-23T03:56:25.073Z,84.99
2022-11-23T03:57:24.376Z,84.80
2022-11-23T03:58:24.382Z,84.85
2022-11-23T04:01:24.508Z,84.89
2022-11-23T04:02:24.938Z,84.75
2022-11-23T04:03:24.533Z,84.80
2022-11-23T04:04:24.555Z,84.75
2022-11-23T04:05:24.584Z,84.75
2022-11-23T04:06:24.606Z,84.66
2022-11-23T04:07:24.731Z,84.66
2022-11-23T04:08:24.670Z,84.75
2022-11-23T04:09:24.700Z,84.80
2022-11-23T04:10:24.723Z,84.85
2022-11-23T04:11:24.758Z,84.66
2022-11-23T04:12:24.777Z,84.66
2022-11-23T04:13:24.885Z,84.75
2022-11-23T04:14:24.842Z,84.75
2022-11-23T04:17:24.925Z,84.75
2022-11-23T04:18:25.140Z,84.66
2022-11-23T04:19:24.981Z,84.85
2022-11-23T04:20:25.308Z,84.95
2022-11-23T04:21:25.052Z,84.95
2022-11-23T04:22:25.418Z,84.95
2022-11-23T04:23:25.095Z,84.85
2022-11-23T04:24:25.191Z,85.04
2022-11-23T04:26:25.255Z,84.66
2022-11-23T04:27:25.209Z,84.75
2022-11-23T04:28:25.542Z,84.85
2022-11-23T04:29:25.388Z,84.75
2022-11-23T04:30:25.297Z,84.66
2022-11-23T04:31:25.422Z,85.24
2022-11-23T04:32:25.452Z,85.14
2022-11-23T04:33:25.388Z,85.14
2022-11-23T04:34:25.551Z,85.14
2022-11-23T04:35:25.441Z,84.95
2022-11-23T04:36:25.583Z,85.04
2022-11-23T04:37:25.496Z,85.04
2022-11-23T04:38:25.524Z,85.33
2022-11-23T04:39:25.850Z,85.04
2022-11-23T04:40:25.585Z,85.04
2022-11-23T04:41:25.611Z,85.04
2022-11-23T04:42:25.644Z,85.04
2022-11-23T04:43:25.664Z,84.95
2022-11-23T04:44:25.710Z,85.24
2022-11-23T04:45:25.770Z,85.14
2022-11-23T04:46:25.751Z,85.33
2022-11-23T04:47:25.785Z,85.14
2022-11-23T04:48:25.813Z,84.95
2022-11-23T04:49:25.971Z,85.04
2022-11-23T04:50:25.867Z,85.04
2022-11-23T04:51:25.897Z,85.33
2022-11-23T04:53:25.955Z,85.33
2022-11-23T04:54:25.978Z,85.33
2022-11-23T04:55:26.013Z,85.14
2022-11-23T04:57:26.066Z,85.14
2022-11-23T04:58:27.890Z,85.04
2022-11-23T04:59:26.121Z,85.04
2022-11-23T05:00:26.151Z,85.14
2022-11-23T05:01:26.311Z,84.95
2022-11-23T05:02:26.208Z,85.33
2022-11-23T05:03:26.240Z,85.14
2022-11-23T05:04:26.267Z,84.95
2022-11-23T05:05:26.300Z,85.14
2022-11-23T05:06:26.330Z,85.33
2022-11-23T05:07:26.401Z,85.14
2022-11-23T05:08:26.383Z,85.04
2022-11-23T05:09:26.406Z,85.04
2022-11-23T05:10:26.438Z,85.14
2022-11-23T05:11:26.475Z,85.14
2022-11-23T05:12:26.517Z,85.14
2022-11-23T05:13:26.521Z,85.24
2022-11-23T05:14:26.556Z,85.24
2022-11-23T05:15:26.579Z,85.33
2022-11-23T05:16:26.908Z,84.95
2022-11-23T05:17:26.657Z,85.33
2022-11-23T05:18:26.665Z,85.42
2022-11-23T05:19:26.693Z,85.24
2022-11-23T05:20:26.733Z,85.33
2022-11-23T05:21:26.754Z,84.66
2022-11-23T05:22:27.028Z,84.75
2022-11-23T05:23:26.816Z,85.24
2022-11-23T05:24:26.845Z,84.56
2022-11-23T05:25:26.969Z,84.56
2022-11-23T05:26:26.897Z,85.24
2022-11-23T05:27:26.930Z,85.24
2022-11-23T05:28:42.388Z,84.56
2022-11-23T05:29:26.977Z,85.24
2022-11-23T05:30:27.008Z,84.85
2022-11-23T05:31:27.034Z,85.33
2022-11-23T05:32:27.070Z,85.33
2022-11-23T05:33:27.117Z,85.33
2022-11-23T05:34:27.120Z,85.14
2022-11-23T05:35:27.152Z,85.33
2022-11-23T05:37:27.314Z,85.14
2022-11-23T05:38:27.252Z,85.04
2022-11-23T05:39:27.270Z,85.24
2022-11-23T05:40:27.301Z,85.14
2022-11-23T05:41:27.327Z,85.14
2022-11-23T05:43:27.390Z,85.14
2022-11-23T05:44:27.412Z,85.04
2022-11-23T05:45:27.439Z,85.04
2022-11-23T05:46:27.469Z,85.33
2022-11-23T05:47:27.796Z,85.33
2022-11-23T05:48:27.523Z,85.04
2022-11-23T05:49:27.572Z,85.04
2022-11-23T05:50:27.588Z,85.24
2022-11-23T05:51:27.619Z,85.14
2022-11-23T05:52:27.638Z,85.04
2022-11-23T05:53:27.973Z,85.33
2022-11-23T05:54:27.744Z,85.14
2022-11-23T05:55:27.720Z,85.04
2022-11-23T05:56:27.750Z,85.04
2022-11-23T05:57:27.859Z,84.95
2022-11-23T05:58:27.815Z,85.33
2022-11-23T05:59:28.136Z,85.14
2022-11-23T06:00:27.872Z,85.33
2022-11-23T06:01:27.897Z,85.33
2022-11-23T06:02:27.925Z,85.24
2022-11-23T06:03:27.955Z,85.14
2022-11-23T06:04:28.090Z,84.66
2022-11-23T06:05:28.037Z,85.14
2022-11-23T06:06:28.341Z,85.33
2022-11-23T06:07:28.165Z,84.75
2022-11-23T06:09:28.126Z,85.33
2022-11-23T06:10:28.150Z,84.66
2022-11-23T06:11:28.181Z,85.24
2022-11-23T06:12:28.207Z,85.33
2022-11-23T06:13:28.490Z,85.14
2022-11-23T06:14:28.268Z,85.24
2022-11-23T06:15:28.306Z,85.24
2022-11-23T06:16:28.320Z,84.66
2022-11-23T06:17:28.355Z,85.33
2022-11-23T06:18:28.379Z,85.33
2022-11-23T06:19:28.427Z,85.33
2022-11-23T06:20:28.435Z,85.33
2022-11-23T06:21:28.488Z,85.04
2022-11-23T06:22:28.497Z,85.33
2022-11-23T06:23:28.524Z,85.33
2022-11-23T06:24:28.554Z,85.33
2022-11-23T06:25:28.579Z,85.33
2022-11-23T06:26:28.607Z,85.14
2022-11-23T06:27:28.637Z,84.95
2022-11-23T06:28:28.684Z,85.04
2022-11-23T06:29:28.696Z,85.14
2022-11-23T06:30:28.720Z,85.04
2022-11-23T06:31:28.751Z,85.04
2022-11-23T06:32:29.109Z,85.04
2022-11-23T06:33:28.805Z,85.33
2022-11-23T06:34:28.942Z,85.33
2022-11-23T06:35:28.865Z,85.24
2022-11-23T06:36:28.909Z,85.14
2022-11-23T06:37:28.941Z,85.14
2022-11-23T06:38:28.956Z,85.24
2022-11-23T06:39:29.512Z,85.14
2022-11-23T06:40:29.046Z,85.24
2022-11-23T06:42:39.031Z,85.14
2022-11-23T06:43:29.094Z,84.75
2022-11-23T06:44:29.147Z,85.04
2022-11-23T06:45:29.150Z,84.66
2022-11-23T06:46:29.203Z,85.14
2022-11-23T06:47:29.204Z,85.14
2022-11-23T06:48:29.246Z,85.33
2022-11-23T06:49:29.596Z,84.75
2022-11-23T06:50:29.304Z,85.42
2022-11-23T06:51:29.320Z,84.95
2022-11-23T06:52:29.607Z,85.62
2022-11-23T06:53:29.409Z,84.95
2022-11-23T06:54:29.407Z,84.95
2022-11-23T06:55:29.436Z,84.95
2022-11-23T06:56:29.485Z,84.95
2022-11-23T06:57:29.491Z,85.62
2022-11-23T06:58:29.822Z,84.95
2022-11-23T06:59:29.779Z,85.14
2022-11-23T07:00:29.725Z,85.14
2022-11-23T07:01:29.690Z,85.62
2022-11-23T07:02:29.648Z,85.04
2022-11-23T07:03:29.747Z,85.24
2022-11-23T07:04:29.939Z,85.33
2022-11-23T07:05:29.728Z,85.52
2022-11-23T07:07:29.877Z,85.33
2022-11-23T07:08:29.807Z,84.75
2022-11-23T07:09:30.387Z,84.95
2022-11-23T07:10:29.864Z,84.85
2022-11-23T07:11:30.190Z,84.37
2022-11-23T07:13:29.950Z,84.85
2022-11-23T07:14:29.974Z,84.75
2022-11-23T07:15:30.005Z,84.85
2022-11-23T07:16:30.035Z,84.85
2022-11-23T07:17:30.068Z,84.27
2022-11-23T07:18:30.390Z,84.37
2022-11-23T07:19:30.288Z,84.27
2022-11-23T07:20:30.150Z,84.37
2022-11-23T07:22:30.207Z,84.08
2022-11-23T07:23:30.232Z,84.47
2022-11-23T07:24:36.302Z,84.47
2022-11-23T07:25:30.628Z,84.27
2022-11-23T07:27:30.482Z,84.08
2022-11-23T07:28:30.378Z,84.08
2022-11-23T07:29:30.673Z,83.98
2022-11-23T07:30:30.538Z,83.80
2022-11-23T07:31:30.461Z,83.98
2022-11-23T07:32:30.789Z,83.98
2022-11-23T07:33:30.519Z,84.18
2022-11-23T07:34:30.846Z,83.98
2022-11-23T07:35:30.577Z,84.18
2022-11-23T07:36:30.608Z,84.27
2022-11-23T07:37:30.734Z,84.37
2022-11-23T07:38:30.662Z,83.98
2022-11-23T07:39:55.120Z,84.47
2022-11-23T07:40:30.716Z,84.37
2022-11-23T07:41:30.770Z,84.18
2022-11-23T07:42:35.509Z,84.27
2022-11-23T07:43:30.807Z,84.22
2022-11-23T07:44:30.837Z,84.22
2022-11-23T07:45:30.863Z,84.08
2022-11-23T07:46:30.887Z,84.18
2022-11-23T07:47:30.919Z,83.89
2022-11-23T07:48:36.167Z,84.27
2022-11-23T07:49:31.328Z,83.98
2022-11-23T07:50:31.002Z,83.98
2022-11-23T07:51:31.030Z,83.80
2022-11-23T07:52:31.060Z,83.80
2022-11-23T07:53:31.091Z,83.93
2022-11-23T07:54:31.139Z,83.98
2022-11-23T07:55:31.148Z,84.22
2022-11-23T07:56:31.178Z,83.98
2022-11-23T07:57:31.224Z,84.47
2022-11-23T07:58:31.481Z,83.80
2022-11-23T07:59:31.547Z,83.93
2022-11-23T08:00:31.289Z,83.74
2022-11-23T08:01:31.324Z,83.70
2022-11-23T08:02:31.356Z,83.93
2022-11-23T08:03:31.469Z,83.74
2022-11-23T08:04:32.167Z,83.60
2022-11-23T08:05:31.434Z,83.70
2022-11-23T08:06:31.461Z,83.64
2022-11-23T08:07:31.531Z,83.89
2022-11-23T08:08:31.515Z,83.80
2022-11-23T08:09:31.574Z,83.89
2022-11-23T08:10:31.872Z,83.93
2022-11-23T08:11:31.612Z,84.03
2022-11-23T08:12:31.632Z,84.03
2022-11-23T08:13:31.689Z,83.54
2022-11-23T08:14:32.197Z,83.93
2022-11-23T08:15:31.717Z,83.54
2022-11-23T08:16:32.044Z,83.54
2022-11-23T08:17:31.780Z,83.45
2022-11-23T08:18:31.800Z,83.54
2022-11-23T08:19:31.831Z,83.64
2022-11-23T08:21:31.902Z,83.16
2022-11-23T08:22:31.918Z,83.16
2022-11-23T08:23:31.946Z,83.36
2022-11-23T08:24:32.259Z,83.36
2022-11-23T08:25:32.001Z,83.36
2022-11-23T08:28:32.390Z,83.51
2022-11-23T08:29:32.136Z,83.45
2022-11-23T08:30:32.152Z,83.36
2022-11-23T08:31:32.171Z,83.36
2022-11-23T08:32:32.201Z,83.54
2022-11-23T08:34:32.848Z,83.45
2022-11-23T08:35:32.288Z,83.54
2022-11-23T08:36:32.420Z,83.45
2022-11-23T08:37:32.354Z,83.64
2022-11-23T08:38:32.370Z,83.64
2022-11-23T08:39:32.402Z,83.74
2022-11-23T08:40:32.738Z,83.16
2022-11-23T08:41:32.465Z,83.26
2022-11-23T08:42:32.488Z,83.26
2022-11-23T08:43:32.524Z,82.97
2022-11-23T08:44:32.736Z,82.87
2022-11-23T08:45:32.595Z,82.87
2022-11-23T08:46:32.598Z,82.68
2022-11-23T08:47:32.638Z,82.87
2022-11-23T08:48:32.659Z,82.68
2022-11-23T08:49:32.693Z,82.87
2022-11-23T08:50:32.725Z,82.68
2022-11-23T08:51:32.745Z,82.68
2022-11-23T08:52:32.772Z,82.78
2022-11-23T08:53:32.800Z,83.07
2022-11-23T08:54:33.303Z,83.07
2022-11-23T08:55:32.863Z,82.97
2022-11-23T08:56:32.991Z,82.87
2022-11-23T08:58:33.241Z,83.07
2022-11-23T08:59:32.973Z,83.07
2022-11-23T09:00:33.002Z,83.07
2022-11-23T09:01:33.091Z,82.97
2022-11-23T09:02:33.066Z,82.87
2022-11-23T09:03:33.085Z,82.78
2022-11-23T09:04:33.498Z,82.87
2022-11-23T09:05:33.444Z,82.87
2022-11-23T09:06:33.178Z,82.59
2022-11-23T09:07:33.238Z,82.87
2022-11-23T09:08:33.248Z,82.97
2022-11-23T09:09:33.506Z,82.59
2022-11-23T09:10:33.292Z,82.87
2022-11-23T09:11:33.320Z,82.68
2022-11-23T09:12:33.599Z,82.78
2022-11-23T09:13:33.377Z,82.78
2022-11-23T09:14:33.879Z,82.68
2022-11-23T09:15:33.430Z,82.68
2022-11-23T09:16:34.173Z,82.49
2022-11-23T09:17:33.530Z,82.30
2022-11-23T09:18:33.516Z,82.30
2022-11-23T09:19:33.843Z,82.49
2022-11-23T09:20:33.582Z,82.20
2022-11-23T09:21:33.602Z,82.40
2022-11-23T09:22:33.627Z,82.30
2022-11-23T09:23:33.658Z,82.40
2022-11-23T09:24:34.247Z,82.40
2022-11-23T09:25:33.714Z,82.30
2022-11-23T09:26:34.044Z,82.49
2022-11-23T09:27:33.771Z,82.59
2022-11-23T09:28:33.808Z,82.40
2022-11-23T09:29:33.837Z,82.59
2022-11-23T09:30:33.864Z,82.01
2022-11-23T09:31:33.890Z,82.30
2022-11-23T09:32:33.933Z,81.92
2022-11-23T09:33:33.971Z,81.82
2022-11-23T09:34:34.384Z,82.10
2022-11-23T09:35:34.003Z,82.01
2022-11-23T09:36:34.134Z,81.63
2022-11-23T09:37:34.186Z,82.10
2022-11-23T09:38:55.095Z,82.01
2022-11-23T09:39:34.366Z,81.82
2022-11-23T09:40:35.957Z,82.01
2022-11-23T09:41:34.534Z,81.92
2022-11-23T09:42:34.745Z,82.10
2022-11-23T09:43:35.000Z,82.10
2022-11-23T09:44:35.045Z,81.92
2022-11-23T09:46:37.108Z,82.20
2022-11-23T09:47:34.351Z,82.10
2022-11-23T09:49:34.441Z,82.01
2022-11-23T09:50:34.434Z,82.01
2022-11-23T09:52:34.590Z,81.72
2022-11-23T09:53:34.535Z,82.01
2022-11-23T09:54:35.061Z,82.20
2022-11-23T09:55:34.584Z,81.82
2022-11-23T09:56:34.604Z,82.20
2022-11-23T09:57:34.939Z,81.82
2022-11-23T09:58:34.664Z,81.86
2022-11-23T09:59:34.693Z,81.92
2022-11-23T10:00:34.734Z,82.01
2022-11-23T10:01:34.811Z,81.63
2022-11-23T10:02:34.778Z,82.01
2022-11-23T10:03:34.813Z,82.01
2022-11-23T10:04:35.263Z,82.01
2022-11-23T10:05:34.975Z,81.57
2022-11-23T10:06:34.892Z,81.86
2022-11-23T10:07:35.045Z,81.53
2022-11-23T10:08:34.953Z,81.48
2022-11-23T10:09:34.979Z,81.43
2022-11-23T10:10:35.012Z,81.63
2022-11-23T10:11:35.288Z,81.15
2022-11-23T10:12:39.843Z,82.01
2022-11-23T10:13:35.094Z,81.48
2022-11-23T10:14:35.254Z,81.57
2022-11-23T10:15:35.151Z,81.57
2022-11-23T10:16:35.179Z,81.19
2022-11-23T10:17:35.217Z,81.28
2022-11-23T10:18:35.488Z,81.28
2022-11-23T10:20:35.306Z,81.48
2022-11-23T10:21:35.367Z,81.57
2022-11-23T10:22:35.353Z,81.57
2022-11-23T10:23:35.383Z,81.48
2022-11-23T10:24:35.682Z,81.48
2022-11-23T10:25:39.082Z,81.86
2022-11-23T10:26:35.470Z,81.48
2022-11-23T10:27:35.495Z,81.57
2022-11-23T10:28:35.528Z,81.48
2022-11-23T10:29:35.560Z,81.57
2022-11-23T10:30:35.792Z,81.48
2022-11-23T10:31:35.714Z,80.90
2022-11-23T10:32:35.658Z,81.38
2022-11-23T10:34:35.698Z,81.67
2022-11-23T10:36:35.868Z,81.48
2022-11-23T10:37:35.809Z,81.76
2022-11-23T10:38:36.082Z,81.76
2022-11-23T10:39:35.846Z,81.38
2022-11-23T10:40:35.879Z,81.57
2022-11-23T10:41:35.914Z,80.71
2022-11-23T10:42:35.936Z,81.76
2022-11-23T10:43:35.969Z,80.71
2022-11-23T10:44:36.363Z,81.09
2022-11-23T10:45:36.068Z,81.57
2022-11-23T10:46:36.051Z,81.19
2022-11-23T10:47:36.094Z,81.38
2022-11-23T10:48:36.108Z,81.38
2022-11-23T10:49:36.134Z,81.28
2022-11-23T10:50:36.412Z,81.38
2022-11-23T10:51:36.188Z,81.48
2022-11-23T10:52:36.229Z,81.28
2022-11-23T10:53:36.268Z,81.38
2022-11-23T10:54:36.585Z,80.42
2022-11-23T10:55:36.311Z,81.28
2022-11-23T10:56:36.650Z,81.09
2022-11-23T10:57:36.372Z,81.28
2022-11-23T10:58:36.397Z,81.28
2022-11-23T10:59:36.420Z,81.19
2022-11-23T11:00:36.456Z,80.99
2022-11-23T11:01:36.535Z,81.09
2022-11-23T11:02:36.508Z,81.09
2022-11-23T11:06:36.655Z,81.38
2022-11-23T11:07:36.720Z,81.19
2022-11-23T11:08:36.699Z,81.38
2022-11-23T11:09:36.793Z,81.09
2022-11-23T11:10:36.746Z,81.28
2022-11-23T11:11:36.772Z,81.19
2022-11-23T11:12:36.803Z,81.28
2022-11-23T11:13:36.828Z,80.90
2022-11-23T11:14:42.971Z,81.19
2022-11-23T11:15:47.202Z,81.09
2022-11-23T11:16:36.928Z,80.80
2022-11-23T11:17:36.945Z,80.99
2022-11-23T11:18:36.978Z,80.99
2022-11-23T11:19:37.001Z,80.90
2022-11-23T11:20:37.031Z,80.90
2022-11-23T11:21:37.065Z,80.71
2022-11-23T11:23:37.116Z,80.61
2022-11-23T11:24:37.148Z,80.71
2022-11-23T11:25:37.195Z,81.09
2022-11-23T11:26:37.203Z,81.19
2022-11-23T11:27:37.238Z,80.99
2022-11-23T11:28:37.259Z,80.99
2022-11-23T11:29:39.305Z,81.28
2022-11-23T11:30:37.318Z,80.80
2022-11-23T11:31:37.363Z,80.90
2022-11-23T11:34:37.452Z,80.80
2022-11-23T11:35:37.464Z,80.71
2022-11-23T11:38:37.550Z,80.71
2022-11-23T11:39:37.585Z,80.61
2022-11-23T11:40:37.608Z,80.32
2022-11-23T11:41:37.656Z,80.42
2022-11-23T11:42:37.674Z,80.61
2022-11-23T11:43:39.908Z,80.51
2022-11-23T11:44:37.738Z,80.61
2022-11-23T11:45:37.762Z,80.71
2022-11-23T11:46:37.786Z,80.71
2022-11-23T11:47:37.813Z,80.61
2022-11-23T11:48:37.846Z,80.80
2022-11-23T11:49:37.872Z,80.80
2022-11-23T11:51:37.940Z,80.80
2022-11-23T11:52:38.209Z,80.80
2022-11-23T11:53:38.001Z,80.42
2022-11-23T11:54:38.013Z,80.80
2022-11-23T11:55:38.057Z,80.90
2022-11-23T11:56:38.083Z,80.42
2022-11-23T11:57:38.189Z,80.71
2022-11-23T11:58:42.868Z,80.36
2022-11-23T11:59:38.186Z,80.51
2022-11-23T12:00:43.548Z,80.32
2022-11-23T12:01:38.227Z,80.32
2022-11-23T12:02:38.288Z,80.42
2022-11-23T12:03:38.419Z,80.42
2022-11-23T12:04:38.307Z,80.51
2022-11-23T12:05:38.341Z,80.42
2022-11-23T12:06:38.366Z,80.51
2022-11-23T12:07:38.502Z,80.32
2022-11-23T12:08:38.422Z,80.32
2022-11-23T12:09:38.457Z,80.32
2022-11-23T12:10:38.488Z,79.94
2022-11-23T12:11:38.562Z,80.32
2022-11-23T12:12:38.552Z,80.32
2022-11-23T12:13:38.694Z,80.13
2022-11-23T12:14:38.603Z,80.17
2022-11-23T12:15:49.468Z,80.27
2022-11-23T12:16:38.659Z,80.27
2022-11-23T12:17:38.941Z,80.36
2022-11-23T12:18:38.731Z,80.27
2022-11-23T12:19:38.755Z,80.65
2022-11-23T12:20:38.775Z,80.17
2022-11-23T12:21:38.861Z,79.98
2022-11-23T12:22:38.830Z,79.79
2022-11-23T12:23:38.862Z,80.17
2022-11-23T12:24:38.890Z,79.88
2022-11-23T12:25:38.918Z,80.07
2022-11-23T12:26:38.946Z,80.07
2022-11-23T12:27:43.427Z,79.98
2022-11-23T12:28:39.007Z,79.98
2022-11-23T12:29:39.062Z,80.13
2022-11-23T12:30:39.070Z,80.07
2022-11-23T12:31:39.098Z,79.94
2022-11-23T12:33:39.156Z,79.94
2022-11-23T12:34:39.195Z,79.94
2022-11-23T12:35:39.216Z,80.04
2022-11-23T12:36:39.244Z,79.94
2022-11-23T12:37:39.272Z,80.17
2022-11-23T12:38:39.300Z,80.13
2022-11-23T12:39:39.345Z,80.13
2022-11-23T12:40:39.376Z,80.13
2022-11-23T12:41:39.639Z,80.13
2022-11-23T12:42:39.421Z,80.04
2022-11-23T12:43:39.443Z,80.04
2022-11-23T12:44:39.481Z,80.17
2022-11-23T12:45:39.528Z,80.13
2022-11-23T12:46:39.539Z,80.13
2022-11-23T12:47:39.582Z,80.13
2022-11-23T12:48:39.598Z,80.13
2022-11-23T12:49:39.628Z,79.94
2022-11-23T12:50:39.653Z,80.04
2022-11-23T12:51:39.680Z,80.13
2022-11-23T12:52:39.716Z,80.22
2022-11-23T12:53:39.857Z,80.07
2022-11-23T12:54:39.775Z,80.04
2022-11-23T12:56:39.831Z,80.17
2022-11-23T12:57:39.880Z,79.94
2022-11-23T12:58:39.888Z,80.04
2022-11-23T12:59:40.165Z,80.17
2022-11-23T13:00:40.032Z,80.27
2022-11-23T13:01:40.136Z,80.13
2022-11-23T13:02:40.010Z,80.17
2022-11-23T13:03:40.033Z,80.22
2022-11-23T13:04:40.061Z,79.94
2022-11-23T13:05:40.192Z,80.13
2022-11-23T13:06:40.118Z,80.04
2022-11-23T13:07:46.111Z,80.17
2022-11-23T13:09:40.208Z,80.17
2022-11-23T13:10:40.244Z,79.98
2022-11-23T13:11:40.273Z,79.46
2022-11-23T13:12:40.296Z,79.75
2022-11-23T13:14:40.362Z,79.65
2022-11-23T13:15:40.446Z,79.94
2022-11-23T13:16:40.559Z,79.60
2022-11-23T13:17:40.476Z,79.69
2022-11-23T13:18:40.474Z,79.60
2022-11-23T13:19:40.498Z,79.79
2022-11-23T13:20:40.527Z,79.60
2022-11-23T13:21:40.559Z,79.60
2022-11-23T13:22:40.583Z,79.65
2022-11-23T13:23:40.620Z,79.94
2022-11-23T13:25:40.995Z,79.75
2022-11-23T13:26:40.705Z,79.65
2022-11-23T13:27:40.757Z,79.75
2022-11-23T13:28:40.761Z,79.65
2022-11-23T13:29:40.795Z,79.84
2022-11-23T13:31:07.287Z,79.75
2022-11-23T13:31:40.919Z,79.79
2022-11-23T13:32:40.880Z,79.75
2022-11-23T13:33:40.930Z,79.75
2022-11-23T13:34:40.934Z,79.65
2022-11-23T13:35:40.969Z,79.65
2022-11-23T13:37:41.075Z,79.84
2022-11-23T13:38:41.061Z,79.75
2022-11-23T13:39:41.091Z,79.65
2022-11-23T13:40:41.115Z,79.65
2022-11-23T13:42:41.471Z,79.65
2022-11-23T13:44:41.238Z,79.65
2022-11-23T13:45:41.325Z,79.65
2022-11-23T13:46:41.288Z,79.65
2022-11-23T13:47:43.749Z,79.75
2022-11-23T13:48:56.292Z,79.79
2022-11-23T13:50:41.421Z,79.75
2022-11-23T13:51:41.449Z,79.94